createdAt,value
2022-10-11T00:02:07.106Z,103097.69
2022-10-11T00:04:33.831Z,103103.59
2022-10-11T00:07:00.637Z,103106.06
2022-10-11T00:09:27.465Z,103100.75
2022-10-11T00:11:57.519Z,103107.59
2022-10-11T00:14:26.173Z,103109.41
2022-10-11T00:16:53.593Z,103123.56
2022-10-11T00:19:20.951Z,103136.97
2022-10-11T00:21:47.817Z,103145.91
2022-10-11T00:24:16.131Z,103152.06
2022-10-11T00:26:46.578Z,103147.72
2022-10-11T00:29:14.384Z,103154.69
2022-10-11T00:31:41.260Z,103156.38
2022-10-11T00:34:08.431Z,103161.56
2022-10-11T00:36:35.193Z,103162.41
2022-10-11T00:39:01.933Z,103168.59
2022-10-11T00:41:28.744Z,103168.56
2022-10-11T00:44:24.929Z,103173.81
2022-10-11T00:47:02.286Z,103179.06
2022-10-11T00:50:01.142Z,103179.81
2022-10-11T00:52:39.093Z,103181.34
2022-10-11T00:55:11.328Z,103179.41
2022-10-11T00:57:43.865Z,103172.22
2022-10-11T01:00:13.768Z,103169.44
2022-10-11T01:02:41.186Z,103178.03
2022-10-11T01:05:28.644Z,103177.09
2022-10-11T01:07:57.749Z,103185.78
2022-10-11T01:10:24.660Z,103192.94
2022-10-11T01:13:06.806Z,103196.75
2022-10-11T01:15:50.666Z,103195.50
2022-10-11T01:18:22.122Z,103196.75
2022-10-11T01:21:16.069Z,103199.34
2022-10-11T01:24:20.442Z,103191.47
2022-10-11T01:27:25.914Z,103182.63
2022-10-11T01:30:06.010Z,103176.56
2022-10-11T01:32:44.632Z,103167.78
2022-10-11T01:35:24.872Z,103161.63
2022-10-11T01:38:18.983Z,103146.53
2022-10-11T01:40:51.136Z,103142.19
2022-10-11T01:43:20.496Z,103142.09
2022-10-11T01:45:51.512Z,103136.78
2022-10-11T01:48:18.707Z,103137.81
2022-10-11T01:50:57.234Z,103130.00
2022-10-11T01:53:39.528Z,103109.72
2022-10-11T01:56:43.282Z,103108.59
2022-10-11T01:59:31.887Z,103103.34
2022-10-11T02:02:38.484Z,103102.47
2022-10-11T02:05:20.277Z,103092.09
2022-10-11T02:07:59.629Z,103091.22
2022-10-11T02:10:26.349Z,103090.25
2022-10-11T02:13:06.331Z,103098.44
2022-10-11T02:15:36.350Z,103097.56
2022-10-11T02:18:10.040Z,103083.75
2022-10-11T02:20:40.456Z,103093.47
2022-10-11T02:23:15.425Z,103083.81
2022-10-11T02:25:44.045Z,103086.41
2022-10-11T02:28:16.594Z,103081.13
2022-10-11T02:30:46.205Z,103075.88
2022-10-11T02:33:18.438Z,103067.78
2022-10-11T02:35:50.142Z,103067.56
2022-10-11T02:38:22.844Z,103061.56
2022-10-11T02:40:56.503Z,103055.53
2022-10-11T02:43:41.637Z,103044.19
2022-10-11T02:46:10.354Z,103053.94
2022-10-11T02:48:37.714Z,103058.28
2022-10-11T02:51:05.011Z,103048.56
2022-10-11T02:53:32.227Z,103040.59
2022-10-11T02:55:59.004Z,103036.13
2022-10-11T02:58:25.794Z,103037.00
2022-10-11T03:00:52.601Z,103036.22
2022-10-11T03:03:19.388Z,103038.03
2022-10-11T03:05:46.252Z,103033.66
2022-10-11T03:08:15.897Z,103037.09
2022-10-11T03:10:43.204Z,103036.13
2022-10-11T03:13:10.009Z,103032.47
2022-10-11T03:15:36.776Z,103030.78
2022-10-11T03:18:03.632Z,103029.06
2022-10-11T03:20:30.377Z,103036.84
2022-10-11T03:22:57.176Z,103034.16
2022-10-11T03:25:23.985Z,103033.25
2022-10-11T03:27:50.991Z,103023.72
2022-10-11T03:30:18.444Z,103038.50
2022-10-11T03:32:45.869Z,103039.28
2022-10-11T03:35:12.766Z,103039.41
2022-10-11T03:37:39.505Z,103031.66
2022-10-11T03:40:08.397Z,103034.25
2022-10-11T03:42:35.773Z,103030.69
2022-10-11T03:45:05.088Z,103035.13
2022-10-11T03:47:32.293Z,103025.38
2022-10-11T03:49:59.057Z,103026.06
2022-10-11T03:52:25.863Z,103030.34
2022-10-11T03:54:52.823Z,103028.66
2022-10-11T03:57:19.905Z,103040.97
2022-10-11T03:59:46.744Z,103036.66
2022-10-11T04:02:13.731Z,103040.97
2022-10-11T04:04:40.577Z,103048.84
2022-10-11T04:07:07.895Z,103048.91
2022-10-11T04:09:35.037Z,103047.16
2022-10-11T04:12:01.786Z,103047.06
2022-10-11T04:14:28.646Z,103045.13
2022-10-11T04:16:59.523Z,103050.19
2022-10-11T04:19:27.426Z,103049.19
2022-10-11T04:21:54.189Z,103052.69
2022-10-11T04:24:20.969Z,103060.50
2022-10-11T04:26:48.403Z,103061.44
2022-10-11T04:29:15.296Z,103071.00
2022-10-11T04:31:42.054Z,103067.56
2022-10-11T04:34:08.811Z,103086.81
2022-10-11T04:36:35.741Z,103082.41
2022-10-11T04:39:03.543Z,103091.28
2022-10-11T04:41:30.321Z,103099.25
2022-10-11T04:43:57.029Z,103099.34
2022-10-11T04:46:24.322Z,103100.25
2022-10-11T04:48:51.606Z,103103.00
2022-10-11T04:51:18.935Z,103109.09
2022-10-11T04:53:45.744Z,103111.63
2022-10-11T04:56:12.628Z,103116.78
2022-10-11T04:58:42.904Z,103111.41
2022-10-11T05:01:09.917Z,103108.56
2022-10-11T05:03:37.734Z,103125.78
2022-10-11T05:06:06.083Z,103137.25
2022-10-11T05:08:33.772Z,103134.69
2022-10-11T05:11:03.967Z,103148.94
2022-10-11T05:13:32.164Z,103150.72
2022-10-11T05:15:58.955Z,103151.56
2022-10-11T05:18:26.672Z,103166.28
2022-10-11T05:21:22.713Z,103174.94
2022-10-11T05:23:51.106Z,103170.31
2022-10-11T05:26:19.591Z,103183.22
2022-10-11T05:28:47.320Z,103184.03
2022-10-11T05:31:14.419Z,103184.63
2022-10-11T05:33:41.602Z,103192.31
2022-10-11T05:36:09.762Z,103198.47
2022-10-11T05:38:37.811Z,103205.28
2022-10-11T05:41:05.392Z,103213.16
2022-10-11T05:43:32.719Z,103216.72
2022-10-11T05:45:59.764Z,103218.44
2022-10-11T05:48:26.936Z,103234.00
2022-10-11T05:50:59.853Z,103234.00
2022-10-11T05:53:26.880Z,103235.69
2022-10-11T05:55:53.647Z,103240.72
2022-10-11T05:58:20.659Z,103246.00
2022-10-11T06:00:47.428Z,103245.88
2022-10-11T06:03:15.244Z,103265.09
2022-10-11T06:05:42.148Z,103266.09
2022-10-11T06:08:11.154Z,103275.72
2022-10-11T06:10:38.631Z,103279.09
2022-10-11T06:13:07.263Z,103293.78
2022-10-11T06:15:34.554Z,103292.94
2022-10-11T06:18:01.517Z,103301.72
2022-10-11T06:20:28.341Z,103315.97
2022-10-11T06:22:55.220Z,103323.31
2022-10-11T06:25:22.053Z,103333.25
2022-10-11T06:27:48.874Z,103350.94
2022-10-11T06:30:15.797Z,103365.31
2022-10-11T06:32:42.783Z,103378.84
2022-10-11T06:35:09.617Z,103382.00
2022-10-11T06:37:36.462Z,103408.72
2022-10-11T06:40:04.023Z,103411.59
2022-10-11T06:42:30.764Z,103426.13
2022-10-11T06:44:57.584Z,103436.09
2022-10-11T06:47:24.451Z,103439.94
2022-10-11T06:49:51.331Z,103434.13
2022-10-11T06:52:18.067Z,103430.78
2022-10-11T06:54:45.672Z,103428.50
2022-10-11T06:57:12.669Z,103422.63
2022-10-11T06:59:39.452Z,103420.25
2022-10-11T07:02:06.170Z,103412.50
2022-10-11T07:04:34.073Z,103402.06
2022-10-11T07:07:00.980Z,103393.28
2022-10-11T07:09:27.741Z,103373.22
2022-10-11T07:11:54.502Z,103374.13
2022-10-11T07:14:21.353Z,103368.03
2022-10-11T07:16:48.470Z,103356.66
2022-10-11T07:19:15.485Z,103340.84
2022-10-11T07:21:42.323Z,103338.22
2022-10-11T07:24:09.452Z,103332.97
2022-10-11T07:26:38.925Z,103324.13
2022-10-11T07:29:10.765Z,103313.78
2022-10-11T07:31:40.550Z,103313.03
2022-10-11T07:34:07.667Z,103308.81
2022-10-11T07:36:35.110Z,103314.31
2022-10-11T07:39:05.075Z,103305.75
2022-10-11T07:41:31.807Z,103311.31
2022-10-11T07:43:58.565Z,103304.59
2022-10-11T07:46:25.330Z,103305.81
2022-10-11T07:48:52.227Z,103315.09
2022-10-11T07:51:21.509Z,103289.91
2022-10-11T07:53:50.985Z,103255.66
2022-10-11T07:56:20.549Z,103219.56
2022-10-11T07:58:51.716Z,103164.03
2022-10-11T08:01:19.503Z,103120.81
2022-10-11T08:03:47.353Z,103078.47
2022-10-11T08:06:16.346Z,103039.84
2022-10-11T08:08:43.185Z,103008.19
2022-10-11T08:11:10.505Z,102987.22
2022-10-11T08:13:37.630Z,102962.53
2022-10-11T08:16:11.085Z,102956.56
2022-10-11T08:18:37.903Z,102943.16
2022-10-11T08:21:11.762Z,102913.00
2022-10-11T08:23:39.845Z,102870.84
2022-10-11T08:26:07.575Z,102826.75
2022-10-11T08:28:37.067Z,102792.63
2022-10-11T08:31:04.245Z,102761.59
2022-10-11T08:33:31.258Z,102751.22
2022-10-11T08:35:58.433Z,102750.88
2022-10-11T08:38:25.410Z,102735.41
2022-10-11T08:40:55.667Z,102735.56
2022-10-11T08:44:00.212Z,102727.16
2022-10-11T08:46:31.941Z,102731.47
2022-10-11T08:49:01.462Z,102738.47
2022-10-11T08:51:33.689Z,102733.09
2022-10-11T08:54:38.824Z,102737.06
2022-10-11T08:57:07.061Z,102735.09
2022-10-11T08:59:47.937Z,102741.66
2022-10-11T09:03:06.545Z,102745.66
2022-10-11T09:05:34.084Z,102732.41
2022-10-11T09:08:39.399Z,102740.28
2022-10-11T09:11:19.487Z,102738.72
2022-10-11T09:14:07.455Z,102741.03
2022-10-11T09:16:51.321Z,102734.81
2022-10-11T09:19:42.339Z,102739.72
2022-10-11T09:22:33.658Z,102742.63
2022-10-11T09:25:41.980Z,102738.63
2022-10-11T09:28:22.078Z,102741.19
2022-10-11T09:30:52.738Z,102750.47
2022-10-11T09:33:23.934Z,102747.19
2022-10-11T09:35:52.532Z,102747.53
2022-10-11T09:38:31.535Z,102739.00
2022-10-11T09:41:07.802Z,102738.84
2022-10-11T09:43:34.718Z,102739.06
2022-10-11T09:46:01.507Z,102745.78
2022-10-11T09:48:40.271Z,102732.81
2022-10-11T09:51:17.029Z,102733.25
2022-10-11T09:53:55.985Z,102743.03
2022-10-11T09:56:25.269Z,102751.28
2022-10-11T09:59:26.347Z,102744.97
2022-10-11T10:02:08.077Z,102748.84
2022-10-11T10:04:34.898Z,102758.47
2022-10-11T10:07:13.151Z,102752.06
2022-10-11T10:09:40.049Z,102747.50
2022-10-11T10:12:19.699Z,102751.31
2022-10-11T10:15:03.559Z,102748.47
2022-10-11T10:17:30.702Z,102753.91
2022-10-11T10:20:00.462Z,102760.69
2022-10-11T10:22:33.366Z,102766.13
2022-10-11T10:25:03.253Z,102767.31
2022-10-11T10:27:31.760Z,102777.22
2022-10-11T10:30:19.467Z,102769.75
2022-10-11T10:33:03.912Z,102757.63
2022-10-11T10:35:32.906Z,102763.00
2022-10-11T10:38:07.625Z,102752.59
2022-10-11T10:40:42.809Z,102755.81
2022-10-11T10:43:15.703Z,102753.44
2022-10-11T10:45:48.508Z,102758.00
2022-10-11T10:48:24.969Z,102761.13
2022-10-11T10:50:59.015Z,102773.16
2022-10-11T10:53:40.811Z,102778.47
2022-10-11T10:56:15.508Z,102787.81
2022-10-11T10:59:11.489Z,102790.66
2022-10-11T11:02:21.436Z,102786.41
2022-10-11T11:07:46.273Z,102780.81
2022-10-11T11:10:19.140Z,102779.31
2022-10-11T11:13:10.649Z,102769.84
2022-10-11T11:15:44.961Z,102764.31
2022-10-11T11:18:47.193Z,102759.94
2022-10-11T11:21:26.873Z,102760.88
2022-10-11T11:24:22.330Z,102760.28
2022-10-11T11:27:10.108Z,102766.03
2022-10-11T11:29:59.402Z,102771.94
2022-10-11T11:32:38.852Z,102767.56
2022-10-11T11:35:33.388Z,102769.84
2022-10-11T11:38:29.254Z,102768.13
2022-10-11T11:41:05.256Z,102778.16
2022-10-11T11:43:39.460Z,102769.53
2022-10-11T11:46:18.658Z,102770.44
2022-10-11T11:48:46.972Z,102777.91
2022-10-11T11:51:31.316Z,102772.59
2022-10-11T11:54:16.903Z,102770.72
2022-10-11T11:57:05.729Z,102763.78
2022-10-11T11:59:43.938Z,102767.78
2022-10-11T12:02:24.790Z,102758.13
2022-10-11T12:04:53.021Z,102745.09
2022-10-11T12:07:22.973Z,102747.19
2022-10-11T12:09:54.587Z,102743.09
2022-10-11T12:12:39.774Z,102737.94
2022-10-11T12:15:09.848Z,102738.69
2022-10-11T12:17:54.782Z,102738.00
2022-10-11T12:20:25.282Z,102737.09
2022-10-11T12:23:00.988Z,102729.56
2022-10-11T12:25:28.616Z,102718.13
2022-10-11T12:28:02.522Z,102720.47
2022-10-11T12:30:44.556Z,102715.41
2022-10-11T12:33:14.357Z,102719.31
2022-10-11T12:35:55.677Z,102716.31
2022-10-11T12:38:28.571Z,102710.06
2022-10-11T12:41:19.895Z,102709.94
2022-10-11T12:43:49.643Z,102724.56
2022-10-11T12:46:28.559Z,102719.66
2022-10-11T12:49:23.472Z,102723.06
2022-10-11T12:52:01.036Z,102713.09
2022-10-11T12:54:43.094Z,102712.00
2022-10-11T12:57:12.196Z,102710.22
2022-10-11T12:59:45.412Z,102714.22
2022-10-11T13:02:38.158Z,102720.53
2022-10-11T13:05:15.361Z,102711.16
2022-10-11T13:07:43.265Z,102703.28
2022-10-11T13:10:16.299Z,102709.69
2022-10-11T13:12:46.637Z,102706.78
2022-10-11T13:15:17.367Z,102706.72
2022-10-11T13:17:44.237Z,102719.84
2022-10-11T13:20:17.633Z,102700.34
2022-10-11T13:22:50.538Z,102703.66
2022-10-11T13:25:23.525Z,102711.13
2022-10-11T13:27:52.749Z,102704.44
2022-10-11T13:30:24.972Z,102701.47
2022-10-11T13:32:52.798Z,102703.28
2022-10-11T13:35:36.294Z,102706.75
2022-10-11T13:38:10.726Z,102709.97
2022-10-11T13:40:38.954Z,102699.47
2022-10-11T13:43:06.209Z,102706.91
2022-10-11T13:45:35.865Z,102717.69
2022-10-11T13:48:03.217Z,102706.66
2022-10-11T13:50:34.590Z,102718.81
2022-10-11T13:53:23.044Z,102709.69
2022-10-11T13:55:55.711Z,102696.31
2022-10-11T13:58:46.325Z,102701.94
2022-10-11T14:01:26.971Z,102706.56
2022-10-11T14:03:59.134Z,102701.34
2022-10-11T14:06:40.489Z,102708.09
2022-10-11T14:09:16.861Z,102703.84
2022-10-11T14:11:43.620Z,102706.31
2022-10-11T14:14:30.097Z,102709.88
2022-10-11T14:17:03.982Z,102708.53
2022-10-11T14:19:30.742Z,102719.03
2022-10-11T14:21:57.542Z,102703.72
2022-10-11T14:24:24.330Z,102705.63
2022-10-11T14:26:54.526Z,102708.72
2022-10-11T14:29:24.309Z,102706.00
2022-10-11T14:31:52.607Z,102719.75
2022-10-11T14:34:22.448Z,102712.13
2022-10-11T14:36:50.637Z,102709.16
2022-10-11T14:39:19.998Z,102711.50
2022-10-11T14:41:47.258Z,102714.56
2022-10-11T14:44:14.927Z,102707.06
2022-10-11T14:46:42.692Z,102708.69
2022-10-11T14:49:14.662Z,102702.59
2022-10-11T14:51:42.891Z,102700.34
2022-10-11T14:54:09.826Z,102704.41
2022-10-11T14:56:36.605Z,102695.38
2022-10-11T14:59:03.536Z,102691.13
2022-10-11T15:01:30.414Z,102689.63
2022-10-11T15:03:57.229Z,102695.16
2022-10-11T15:06:32.059Z,102685.41
2022-10-11T15:08:58.910Z,102688.94
2022-10-11T15:11:26.477Z,102689.06
2022-10-11T15:13:55.935Z,102695.28
2022-10-11T15:16:23.273Z,102691.50
2022-10-11T15:18:52.861Z,102687.69
2022-10-11T15:21:23.289Z,102694.44
2022-10-11T15:23:53.471Z,102687.03
2022-10-11T15:26:24.223Z,102682.66
2022-10-11T15:28:52.935Z,102680.22
2022-10-11T15:31:20.368Z,102686.72
2022-10-11T15:33:47.316Z,102689.59
2022-10-11T15:36:22.333Z,102697.34
2022-10-11T15:38:49.652Z,102711.25
2022-10-11T15:41:19.931Z,102712.94
2022-10-11T15:43:49.170Z,102717.31
2022-10-11T15:46:20.110Z,102736.84
2022-10-11T15:48:48.627Z,102737.78
2022-10-11T15:51:16.373Z,102742.75
2022-10-11T15:53:43.694Z,102736.22
2022-10-11T15:56:19.560Z,102742.97
2022-10-11T15:58:46.805Z,102748.69
2022-10-11T16:01:19.419Z,102755.94
2022-10-11T16:03:47.859Z,102752.69
2022-10-11T16:06:15.565Z,102757.31
2022-10-11T16:08:42.366Z,102760.09
2022-10-11T16:11:10.593Z,102764.63
2022-10-11T16:13:38.110Z,102771.81
2022-10-11T16:16:07.542Z,102770.19
2022-10-11T16:18:35.919Z,102788.84
2022-10-11T16:21:09.803Z,102804.84
2022-10-11T16:23:37.019Z,102807.63
2022-10-11T16:26:07.582Z,102823.56
2022-10-11T16:28:34.815Z,102829.84
2022-10-11T16:31:08.591Z,102840.50
2022-10-11T16:33:35.436Z,102843.22
2022-10-11T16:36:26.256Z,102857.34
2022-10-11T16:38:52.996Z,102874.06
2022-10-11T16:41:19.774Z,102890.75
2022-10-11T16:43:50.748Z,102896.06
2022-10-11T16:46:17.969Z,102918.88
2022-10-11T16:48:45.055Z,102927.66
2022-10-11T16:51:11.910Z,102943.41
2022-10-11T16:53:38.831Z,102958.31
2022-10-11T16:56:10.044Z,102916.25
2022-10-11T16:58:36.965Z,102930.28
2022-10-11T17:01:08.827Z,102933.78
2022-10-11T17:03:35.702Z,102945.16
2022-10-11T17:06:03.344Z,102943.38
2022-10-11T17:08:30.607Z,102953.00
2022-10-11T17:10:58.068Z,102957.34
2022-10-11T17:13:25.203Z,102963.47
2022-10-11T17:15:51.999Z,102972.22
2022-10-11T17:18:19.009Z,102980.06
2022-10-11T17:20:46.234Z,102987.06
2022-10-11T17:23:13.098Z,103001.03
2022-10-11T17:25:46.929Z,103003.66
2022-10-11T17:28:13.759Z,103011.47
2022-10-11T17:30:42.109Z,103024.53
2022-10-11T17:33:09.354Z,103028.88
2022-10-11T17:35:36.631Z,103043.69
2022-10-11T17:38:06.385Z,103054.13
2022-10-11T17:40:33.447Z,103064.56
2022-10-11T17:43:00.247Z,103069.78
2022-10-11T17:45:27.157Z,103076.78
2022-10-11T17:47:54.126Z,103083.72
2022-10-11T17:50:20.966Z,103097.56
2022-10-11T17:52:47.963Z,103104.50
2022-10-11T17:55:15.020Z,103106.19
2022-10-11T17:57:41.849Z,103121.91
2022-10-11T18:00:09.329Z,103138.66
2022-10-11T18:02:36.185Z,103143.13
2022-10-11T18:05:04.250Z,103153.63
2022-10-11T18:07:31.091Z,103169.34
2022-10-11T18:09:58.003Z,103176.28
2022-10-11T18:12:25.981Z,103182.38
2022-10-11T18:14:52.954Z,103190.22
2022-10-11T18:17:19.834Z,103199.84
2022-10-11T18:19:46.686Z,103205.94
2022-10-11T18:22:13.610Z,103205.91
2022-10-11T18:24:41.469Z,103219.75
2022-10-11T18:27:08.388Z,103223.16
2022-10-11T18:29:35.201Z,103230.16
2022-10-11T18:32:02.054Z,103229.28
2022-10-11T18:34:28.950Z,103239.84
2022-10-11T18:36:55.904Z,103254.00
2022-10-11T18:39:22.743Z,103256.63
2022-10-11T18:41:49.873Z,103266.28
2022-10-11T18:44:16.880Z,103270.75
2022-10-11T18:46:44.901Z,103277.84
2022-10-11T18:49:12.442Z,103282.50
2022-10-11T18:51:41.752Z,103264.13
2022-10-11T18:54:12.892Z,103258.88
2022-10-11T18:56:42.510Z,103243.13
2022-10-11T18:59:10.749Z,103228.19
2022-10-11T19:01:40.497Z,103206.06
2022-10-11T19:04:09.843Z,103206.03
2022-10-11T19:06:40.072Z,103199.91
2022-10-11T19:09:13.255Z,103192.88
2022-10-11T19:11:41.270Z,103183.22
2022-10-11T19:14:14.820Z,103170.97
2022-10-11T19:16:45.419Z,103172.69
2022-10-11T19:19:13.007Z,103162.13
2022-10-11T19:21:39.931Z,103160.34
2022-10-11T19:24:07.055Z,103172.63
2022-10-11T19:26:37.125Z,103166.56
2022-10-11T19:29:07.808Z,103168.41
2022-10-11T19:31:36.648Z,103168.38
2022-10-11T19:34:03.822Z,103163.06
2022-10-11T19:36:36.230Z,103154.25
2022-10-11T19:39:04.396Z,103147.25
2022-10-11T19:41:31.837Z,103153.31
2022-10-11T19:43:59.618Z,103141.94
2022-10-11T19:46:49.812Z,103148.97
2022-10-11T19:49:17.505Z,103150.75
2022-10-11T19:51:44.746Z,103140.31
2022-10-11T19:54:14.173Z,103151.69
2022-10-11T19:56:42.493Z,103156.13
2022-10-11T19:59:11.153Z,103150.09
2022-10-11T20:01:38.171Z,103146.69
2022-10-11T20:04:07.743Z,103152.84
2022-10-11T20:06:38.529Z,103151.13
2022-10-11T20:11:55.506Z,103147.63
2022-10-11T20:14:22.497Z,103152.06
2022-10-11T20:16:50.462Z,103149.44
2022-10-11T20:19:17.773Z,103137.22
2022-10-11T20:21:45.277Z,103134.56
2022-10-11T20:24:12.585Z,103134.59
2022-10-11T20:26:39.497Z,103131.13
2022-10-11T20:29:06.519Z,103131.94
2022-10-11T20:31:34.731Z,103121.41
2022-10-11T20:34:04.246Z,103128.31
2022-10-11T20:36:32.045Z,103129.16
2022-10-11T20:38:59.983Z,103127.38
2022-10-11T20:41:31.245Z,103122.88
2022-10-11T20:43:59.460Z,103119.34
2022-10-11T20:46:30.051Z,103130.59
2022-10-11T20:49:02.517Z,103130.56
2022-10-11T20:51:31.146Z,103135.84
2022-10-11T20:53:59.276Z,103148.19
2022-10-11T20:56:26.780Z,103143.72
2022-10-11T20:58:55.780Z,103141.88
2022-10-11T21:01:26.291Z,103148.84
2022-10-11T21:03:53.951Z,103147.88
2022-10-11T21:06:20.940Z,103154.00
2022-10-11T21:08:47.791Z,103164.38
2022-10-11T21:11:14.620Z,103174.75
2022-10-11T21:13:41.412Z,103171.13
2022-10-11T21:16:12.565Z,103184.16
2022-10-11T21:18:39.559Z,103189.38
2022-10-11T21:21:14.013Z,103192.81
2022-10-11T21:23:41.570Z,103188.47
2022-10-11T21:26:11.366Z,103197.19
2022-10-11T21:28:39.400Z,103217.22
2022-10-11T21:31:08.280Z,103218.16
2022-10-11T21:33:35.903Z,103227.81
2022-10-11T21:36:07.477Z,103236.53
2022-10-11T21:38:34.541Z,103237.28
2022-10-11T21:41:10.041Z,103245.88
2022-10-11T21:43:38.430Z,103252.72
2022-10-11T21:46:09.300Z,103257.97
2022-10-11T21:48:36.074Z,103265.88
2022-10-11T21:51:03.011Z,103279.88
2022-10-11T21:53:30.052Z,103287.72
2022-10-11T21:56:01.071Z,103293.00
2022-10-11T21:58:28.314Z,103295.44
2022-10-11T22:00:55.086Z,103311.09
2022-10-11T22:03:21.897Z,103319.56
2022-10-11T22:05:48.996Z,103327.09
2022-10-11T22:08:15.829Z,103328.72
2022-10-11T22:10:44.241Z,103338.03
2022-10-11T22:13:11.577Z,103351.84
2022-10-11T22:15:39.395Z,103357.91
2022-10-11T22:18:06.161Z,103363.41
2022-10-11T22:20:33.818Z,103394.22
2022-10-11T22:23:00.995Z,103397.66
2022-10-11T22:25:28.827Z,103399.09
2022-10-11T22:27:55.564Z,103403.13
2022-10-11T22:30:22.400Z,103410.72
2022-10-11T22:32:51.385Z,103414.06
2022-10-11T22:35:20.683Z,103424.38
2022-10-11T22:37:47.509Z,103425.09
2022-10-11T22:40:14.278Z,103430.31
2022-10-11T22:42:41.054Z,103448.69
2022-10-11T22:45:08.241Z,103446.72
2022-10-11T22:47:35.208Z,103448.31
2022-10-11T22:50:02.116Z,103448.22
2022-10-11T22:52:29.051Z,103463.94
2022-10-11T22:54:55.800Z,103465.81
2022-10-11T22:57:22.848Z,103470.88
2022-10-11T22:59:49.571Z,103479.50
2022-10-11T23:02:16.267Z,103475.06
2022-10-11T23:04:42.957Z,103487.63
2022-10-11T23:07:09.697Z,103492.72
2022-10-11T23:09:36.400Z,103502.06
2022-10-11T23:12:03.129Z,103502.94
2022-10-11T23:14:29.850Z,103512.31
2022-10-11T23:16:56.564Z,103520.84
2022-10-11T23:19:23.345Z,103518.19
2022-10-11T23:21:50.208Z,103531.19
2022-10-11T23:24:16.981Z,103529.50
2022-10-11T23:26:43.757Z,103536.50
2022-10-11T23:29:10.577Z,103542.63
2022-10-11T23:31:37.305Z,103545.03
2022-10-11T23:34:04.051Z,103543.06
2022-10-11T23:36:30.810Z,103550.88
2022-10-11T23:38:58.814Z,103563.31
2022-10-11T23:41:27.837Z,103569.69
2022-10-11T23:43:54.707Z,103578.50
2022-10-11T23:46:22.195Z,103596.97
2022-10-11T23:48:48.960Z,103603.03
2022-10-11T23:51:15.669Z,103605.44
2022-10-11T23:53:42.643Z,103606.09
2022-10-11T23:56:10.657Z,103603.34
2022-10-11T23:58:37.656Z,103602.50
